| time (UTC) | temp F | wind direction | speed MPH | gust MPH | rain 1hr in | rain 24hr in | rain mn in | humidity % | barometer mb |
| 20260508225316 | 64 | 265 | 3.0 | 4.0 | 0.00 | 0.00 | 0.00 | 33 | 1008.0 |
| 20260508224814 | 64 | 297 | 4.0 | 7.0 | 0.00 | 0.00 | 0.00 | 34 | 1008.0 |
| 20260508224311 | 64 | 273 | 7.0 | 8.0 | 0.00 | 0.00 | 0.00 | 33 | 1007.9 |
| 20260508223809 | 63 | 293 | 5.0 | 6.0 | 0.00 | 0.00 | 0.00 | 32 | 1008.1 |
| 20260508223306 | 63 | 298 | 5.0 | 10.0 | 0.00 | 0.00 | 0.00 | 32 | 1007.9 |
| 20260508222803 | 64 | 291 | 4.0 | 8.0 | 0.00 | 0.00 | 0.00 | 32 | 1008.1 |
| 20260508222300 | 64 | 309 | 5.0 | 10.0 | 0.00 | 0.00 | 0.00 | 33 | 1008.2 |
| 20260508221757 | 64 | 279 | 10.0 | 11.0 | 0.00 | 0.00 | 0.00 | 33 | 1008.2 |
| 20260508221253 | 64 | 277 | 11.0 | 14.0 | 0.00 | 0.00 | 0.00 | 33 | 1007.9 |
| 20260508220749 | 64 | 281 | 5.0 | 9.0 | 0.00 | 0.00 | 0.00 | 35 | 1008.2 |
| 20260508220247 | 64 | 258 | 4.0 | 6.0 | 0.00 | 0.00 | 0.00 | 36 | 1008.3 |
| 20260508215742 | 64 | 237 | 7.0 | 15.0 | 0.00 | 0.00 | 0.00 | 35 | 1008.2 |
| 20260508215239 | 64 | 257 | 2.0 | 4.0 | 0.00 | 0.00 | 0.00 | 40 | 1008.3 |
| 20260508214736 | 64 | 250 | 5.0 | 8.0 | 0.00 | 0.00 | 0.00 | 39 | 1008.0 |
| 20260508214234 | 64 | 359 | 3.0 | 10.0 | 0.00 | 0.00 | 0.00 | 40 | 1008.2 |
| 20260508213730 | 64 | 295 | 2.0 | 8.0 | 0.00 | 0.00 | 0.00 | 37 | 1008.2 |
| 20260508213226 | 64 | 294 | 9.0 | 13.0 | 0.00 | 0.00 | 0.00 | 36 | 1008.4 |
| 20260508212723 | 64 | 276 | 3.0 | 11.0 | 0.00 | 0.00 | 0.00 | 37 | 1008.2 |
| 20260508212219 | 64 | 287 | 8.0 | 10.0 | 0.00 | 0.00 | 0.00 | 37 | 1008.3 |
| 20260508211715 | 64 | 244 | 7.0 | 9.0 | 0.00 | 0.00 | 0.00 | 38 | 1008.2 |
| 20260508211211 | 64 | 270 | 4.0 | 6.0 | 0.00 | 0.00 | 0.00 | 37 | 1008.5 |
| 20260508210709 | 64 | 267 | 5.0 | 13.0 | 0.00 | 0.00 | 0.00 | 39 | 1008.4 |
| 20260508210206 | 63 | 254 | 7.0 | 13.0 | 0.00 | 0.00 | 0.00 | 39 | 1008.5 |
| 20260508205702 | 63 | 240 | 1.0 | 4.0 | 0.00 | 0.00 | 0.00 | 39 | 1008.5 |
| 20260508205159 | 62 | 327 | 1.0 | 3.0 | 0.00 | 0.00 | 0.00 | 39 | 1008.5 |
| 20260508204655 | 62 | 206 | 2.0 | 4.0 | 0.00 | 0.00 | 0.00 | 39 | 1008.4 |
| 20260508204151 | 64 | 282 | 4.0 | 13.0 | 0.00 | 0.00 | 0.00 | 36 | 1008.8 |
| 20260508203648 | 63 | 263 | 2.0 | 8.0 | 0.00 | 0.00 | 0.00 | 40 | 1008.7 |
| 20260508203144 | 63 | 269 | 10.0 | 13.0 | 0.00 | 0.00 | 0.00 | 38 | 1008.7 |
| 20260508202640 | 63 | 261 | 6.0 | 11.0 | 0.00 | 0.00 | 0.00 | 38 | 1008.9 |
| 20260508202137 | 63 | 272 | 9.0 | 14.0 | 0.00 | 0.00 | 0.00 | 38 | 1009.0 |
| 20260508201634 | 63 | 231 | 6.0 | 10.0 | 0.00 | 0.00 | 0.00 | 37 | 1009.0 |
| 20260508201131 | 64 | 247 | 4.0 | 8.0 | 0.00 | 0.00 | 0.00 | 36 | 1009.0 |
| 20260508200627 | 63 | 262 | 2.0 | 3.0 | 0.00 | 0.00 | 0.00 | 36 | 1009.4 |
| 20260508200123 | 62 | 320 | 2.0 | 4.0 | 0.00 | 0.00 | 0.00 | 40 | 1009.5 |
| 20260508195620 | 63 | 292 | 3.0 | 7.0 | 0.00 | 0.00 | 0.00 | 38 | 1009.5 |
| 20260508195117 | 62 | 347 | 1.0 | 4.0 | 0.00 | 0.00 | 0.00 | 37 | 1009.5 |
| 20260508194613 | 63 | 305 | 4.0 | 7.0 | 0.00 | 0.00 | 0.00 | 38 | 1009.6 |
| 20260508194111 | 63 | 271 | 3.0 | 7.0 | 0.00 | 0.00 | 0.00 | 42 | 1009.8 |
| 20260508193607 | 63 | 279 | 5.0 | 7.0 | 0.00 | 0.00 | 0.00 | 37 | 1009.6 |
| 20260508193104 | 63 | 229 | 4.0 | 8.0 | 0.00 | 0.00 | 0.00 | 40 | 1009.8 |
| 20260508192600 | 62 | 242 | 4.0 | 9.0 | 0.00 | 0.00 | 0.00 | 37 | 1009.9 |
| 20260508192058 | 62 | 249 | 5.0 | 10.0 | 0.00 | 0.00 | 0.00 | 38 | 1009.9 |
| 20260508191554 | 63 | 272 | 3.0 | 13.0 | 0.00 | 0.00 | 0.00 | 42 | 1010.1 |
| 20260508191051 | 61 | 291 | 3.0 | 8.0 | 0.00 | 0.00 | 0.00 | 39 | 1010.1 |
| 20260508190548 | 60 | 260 | 4.0 | 8.0 | 0.00 | 0.00 | 0.00 | 40 | 1010.2 |
| 20260508190045 | 61 | 297 | 6.0 | 7.0 | 0.00 | 0.00 | 0.00 | 39 | 1010.3 |
| 20260508185542 | 61 | 289 | 2.0 | 14.0 | 0.00 | 0.00 | 0.00 | 39 | 1010.6 |
| 20260508185039 | 62 | 290 | 6.0 | 13.0 | 0.00 | 0.00 | 0.00 | 40 | 1010.3 |
| 20260508184537 | 62 | 267 | 2.0 | 7.0 | 0.00 | 0.00 | 0.00 | 39 | 1010.3 |
| 20260508184033 | 62 | 270 | 3.0 | 9.0 | 0.00 | 0.00 | 0.00 | 37 | 1010.5 |
| 20260508183530 | 61 | 280 | 6.0 | 13.0 | 0.00 | 0.00 | 0.00 | 40 | 1010.7 |
| 20260508183026 | 60 | 291 | 5.0 | 14.0 | 0.00 | 0.00 | 0.00 | 41 | 1010.6 |
| 20260508182523 | 61 | 244 | 7.0 | 10.0 | 0.00 | 0.00 | 0.00 | 39 | 1010.8 |
| 20260508182019 | 61 | 242 | 3.0 | 8.0 | 0.00 | 0.00 | 0.00 | 41 | 1010.8 |
| 20260508181514 | 61 | 248 | 4.0 | 8.0 | 0.00 | 0.00 | 0.00 | 39 | 1010.9 |
| 20260508181013 | 61 | 245 | 7.0 | 11.0 | 0.00 | 0.00 | 0.00 | 41 | 1011.1 |
| 20260508180509 | 60 | 252 | 7.0 | 11.0 | 0.00 | 0.00 | 0.00 | 39 | 1011.2 |
| 20260508180005 | 61 | 272 | 9.0 | 11.0 | 0.00 | 0.00 | 0.00 | 38 | 1011.0 |
| 20260508175501 | 60 | 308 | 9.0 | 13.0 | 0.00 | 0.00 | 0.00 | 38 | 1011.1 |
| 20260508174959 | 60 | 267 | 9.0 | 11.0 | 0.00 | 0.00 | 0.00 | 39 | 1011.2 |
| 20260508174457 | 60 | 257 | 6.0 | 15.0 | 0.00 | 0.00 | 0.00 | 39 | 1011.3 |
| 20260508173953 | 59 | 307 | 4.0 | 7.0 | 0.00 | 0.00 | 0.00 | 40 | 1011.4 |
| 20260508173451 | 59 | 272 | 9.0 | 13.0 | 0.00 | 0.00 | 0.00 | 39 | 1011.5 |
| 20260508172946 | 59 | 239 | 5.0 | 11.0 | 0.00 | 0.00 | 0.00 | 37 | 1011.7 |
| 20260508172444 | 59 | 247 | 6.0 | 9.0 | 0.00 | 0.00 | 0.00 | 38 | 1011.6 |
| 20260508171940 | 58 | 278 | 3.0 | 10.0 | 0.00 | 0.00 | 0.00 | 40 | 1011.7 |
| 20260508171436 | 58 | 229 | 6.0 | 11.0 | 0.00 | 0.00 | 0.00 | 39 | 1012.0 |
| 20260508170933 | 57 | 251 | 5.0 | 13.0 | 0.00 | 0.00 | 0.00 | 41 | 1012.0 |
| 20260508170431 | 58 | 264 | 5.0 | 10.0 | 0.00 | 0.00 | 0.00 | 41 | 1012.2 |
| 20260508165927 | 59 | 269 | 5.0 | 10.0 | 0.00 | 0.00 | 0.00 | 38 | 1011.8 |
| 20260508165425 | 57 | 2 | 2.0 | 7.0 | 0.00 | 0.00 | 0.00 | 38 | 1012.0 |
| 20260508164921 | 57 | 290 | 7.0 | 11.0 | 0.00 | 0.00 | 0.00 | 40 | 1012.1 |
| 20260508164418 | 58 | 283 | 7.0 | 13.0 | 0.00 | 0.00 | 0.00 | 43 | 1012.2 |
| 20260508163915 | 59 | 269 | 5.0 | 7.0 | 0.00 | 0.00 | 0.00 | 40 | 1012.2 |
| 20260508163413 | 57 | 306 | 3.0 | 4.0 | 0.00 | 0.00 | 0.00 | 45 | 1012.4 |
| 20260508162908 | 57 | 282 | 5.0 | 7.0 | 0.00 | 0.00 | 0.00 | 40 | 1012.3 |
| 20260508162406 | 57 | 302 | 9.0 | 10.0 | 0.00 | 0.00 | 0.00 | 39 | 1012.3 |
| 20260508161902 | 57 | 258 | 4.0 | 4.0 | 0.00 | 0.00 | 0.00 | 44 | 1012.3 |
| 20260508161400 | 57 | 252 | 5.0 | 9.0 | 0.00 | 0.00 | 0.00 | 40 | 1012.4 |
| 20260508160857 | 57 | 268 | 5.0 | 8.0 | 0.00 | 0.00 | 0.00 | 44 | 1012.5 |
| 20260508160356 | 57 | 289 | 4.0 | 7.0 | 0.00 | 0.00 | 0.00 | 39 | 1012.4 |
| 20260508155852 | 57 | 267 | 2.0 | 8.0 | 0.00 | 0.00 | 0.00 | 44 | 1012.6 |
| 20260508155349 | 56 | 344 | 1.0 | 6.0 | 0.00 | 0.00 | 0.00 | 49 | 1012.6 |
| 20260508154846 | 57 | 290 | 2.0 | 6.0 | 0.00 | 0.00 | 0.00 | 45 | 1012.8 |
| 20260508154344 | 56 | 2 | 4.0 | 4.0 | 0.00 | 0.00 | 0.00 | 48 | 1012.6 |
| 20260508153840 | 56 | 297 | 6.0 | 8.0 | 0.00 | 0.00 | 0.00 | 47 | 1012.8 |
| 20260508153337 | 55 | 267 | 4.0 | 7.0 | 0.00 | 0.00 | 0.00 | 47 | 1013.1 |
| 20260508152833 | 54 | 311 | 2.0 | 7.0 | 0.00 | 0.00 | 0.00 | 49 | 1012.8 |
| 20260508152330 | 55 | 293 | 1.0 | 4.0 | 0.00 | 0.00 | 0.00 | 54 | 1012.9 |
| 20260508151826 | 55 | 319 | 1.0 | 4.0 | 0.00 | 0.00 | 0.00 | 47 | 1013.0 |
| 20260508151323 | 55 | 256 | 4.0 | 7.0 | 0.00 | 0.00 | 0.00 | 49 | 1013.1 |
| 20260508150819 | 55 | 275 | 4.0 | 7.0 | 0.00 | 0.00 | 0.00 | 52 | 1013.1 |
| 20260508150316 | 54 | 295 | 3.0 | 8.0 | 0.00 | 0.00 | 0.00 | 53 | 1012.8 |
| 20260508145812 | 55 | 357 | 1.0 | 2.0 | 0.00 | 0.00 | 0.00 | 52 | 1012.9 |
| 20260508145308 | 55 | 93 | 2.0 | 2.0 | 0.00 | 0.00 | 0.00 | 56 | 1013.0 |
| 20260508144806 | 54 | 287 | 2.0 | 2.0 | 0.00 | 0.00 | 0.00 | 53 | 1013.1 |
| 20260508144303 | 54 | 336 | 2.0 | 2.0 | 0.00 | 0.00 | 0.00 | 57 | 1013.2 |
| 20260508143801 | 54 | 48 | 0.0 | 1.0 | 0.00 | 0.00 | 0.00 | 63 | 1013.3 |
| 20260508143258 | 53 | 122 | 3.0 | 3.0 | 0.00 | 0.00 | 0.00 | 60 | 1013.4 |
| 20260508142754 | 53 | 11 | 0.0 | 2.0 | 0.00 | 0.00 | 0.00 | 61 | 1013.3 |
| 20260508142251 | 52 | 343 | 0.0 | 2.0 | 0.00 | 0.00 | 0.00 | 63 | 1013.3 |
| 20260508141747 | 53 | 151 | 1.0 | 2.0 | 0.00 | 0.00 | 0.00 | 60 | 1013.4 |
| 20260508141245 | 53 | 316 | 1.0 | 2.0 | 0.00 | 0.00 | 0.00 | 64 | 1013.4 |
| 20260508140742 | 53 | 28 | 1.0 | 1.0 | 0.00 | 0.00 | 0.00 | 63 | 1013.5 |
| 20260508140239 | 52 | 214 | 1.0 | 3.0 | 0.00 | 0.00 | 0.00 | 65 | 1013.3 |
| 20260508135735 | 52 | 315 | 1.0 | 3.0 | 0.00 | 0.00 | 0.00 | 68 | 1013.3 |
| 20260508135231 | 51 | 9 | 0.0 | 1.0 | 0.00 | 0.00 | 0.00 | 68 | 1013.5 |
| 20260508134727 | 51 | 279 | 3.0 | 3.0 | 0.00 | 0.00 | 0.00 | 68 | 1013.5 |
| 20260508134224 | 50 | 25 | 2.0 | 3.0 | 0.00 | 0.00 | 0.00 | 71 | 1013.5 |
| 20260508133721 | 51 | 276 | 2.0 | 2.0 | 0.00 | 0.00 | 0.00 | 69 | 1013.6 |
| 20260508133219 | 0 | 0.0 | 0.0 | 0.00 | 0.00 | 0.00 | 1013.7 | ||
| 20260508132716 | 0 | 0.0 | 0.0 | 0.00 | 0.00 | 0.00 | 1013.5 | ||
| 20260508132214 | 0 | 0.0 | 0.0 | 0.00 | 0.00 | 0.00 | 1013.8 | ||
| 20260508131709 | 0 | 0.0 | 0.0 | 0.00 | 0.00 | 0.00 | 1013.6 | ||
| 20260508131206 | 0 | 0.0 | 0.0 | 0.00 | 0.00 | 0.00 | 1013.7 | ||
| 20260508130702 | 0 | 0.0 | 0.0 | 0.00 | 0.00 | 0.00 | 1013.8 | ||
| 20260508130159 | 0 | 0.0 | 0.0 | 0.00 | 0.00 | 0.00 | 1013.6 | ||
| 20260508125654 | 0 | 0.0 | 0.0 | 0.00 | 0.00 | 0.00 | 1013.8 | ||
| 20260508125151 | 0 | 0.0 | 0.0 | 0.00 | 0.00 | 0.00 | 1013.8 | ||
| 20260508124650 | 0 | 0.0 | 0.0 | 0.00 | 0.00 | 0.00 | 1013.8 | ||
| 20260508124146 | 0 | 0.0 | 0.0 | 0.00 | 0.00 | 0.00 | 1013.6 | ||
| 20260508123645 | 0 | 0.0 | 0.0 | 0.00 | 0.00 | 0.00 | 1013.7 | ||
| 20260508123142 | 0 | 0.0 | 0.0 | 0.00 | 0.00 | 0.00 | 1013.8 | ||
| 20260508122638 | 0 | 0.0 | 0.0 | 0.00 | 0.00 | 0.00 | 1013.6 | ||
| 20260508122135 | 0 | 0.0 | 0.0 | 0.00 | 0.00 | 0.00 | 1013.6 | ||
| 20260508121633 | 0 | 0.0 | 0.0 | 0.00 | 0.00 | 0.00 | 1013.4 | ||
| 20260508121131 | 39 | 354 | 0.0 | 0.0 | 0.00 | 0.00 | 0.00 | 99 | 1013.4 |
| 20260508120628 | 39 | 354 | 0.0 | 0.0 | 0.00 | 0.00 | 0.00 | 99 | 1013.2 |
| 20260508120127 | 39 | 354 | 0.0 | 0.0 | 0.00 | 0.00 | 0.00 | 99 | 1013.3 |
| 20260508115624 | 39 | 354 | 0.0 | 0.0 | 0.00 | 0.00 | 0.00 | 99 | 1013.5 |
| 20260508115120 | 39 | 354 | 0.0 | 0.0 | 0.00 | 0.00 | 0.00 | 99 | 1013.3 |
| 20260508114618 | 39 | 354 | 0.0 | 0.0 | 0.00 | 0.00 | 0.00 | 99 | 1013.0 |
| 20260508114113 | 39 | 354 | 0.0 | 0.0 | 0.00 | 0.00 | 0.00 | 99 | 1013.1 |
| 20260508113611 | 39 | 354 | 0.0 | 0.0 | 0.00 | 0.00 | 0.00 | 99 | 1013.1 |
| 20260508113109 | 39 | 354 | 0.0 | 0.0 | 0.00 | 0.00 | 0.00 | 99 | 1013.1 |
| 20260508112605 | 39 | 354 | 0.0 | 0.0 | 0.00 | 0.00 | 0.00 | 99 | 1013.1 |
| 20260508112102 | 39 | 354 | 0.0 | 0.0 | 0.00 | 0.00 | 0.00 | 99 | 1012.9 |
| 20260508111559 | 39 | 354 | 0.0 | 0.0 | 0.00 | 0.00 | 0.00 | 99 | 1012.8 |
| 20260508111056 | 37 | 353 | 0.0 | 0.0 | 0.00 | 0.00 | 0.00 | 99 | 1012.8 |
| 20260508110554 | 37 | 353 | 0.0 | 0.0 | 0.00 | 0.00 | 0.00 | 99 | 1012.6 |
| 20260508110049 | 37 | 353 | 0.0 | 0.0 | 0.00 | 0.00 | 0.00 | 99 | 1012.8 |
| 20260508105544 | 35 | 351 | 0.0 | 0.0 | 0.00 | 0.00 | 0.00 | 99 | 1012.6 |
| 20260508105042 | 35 | 351 | 0.0 | 0.0 | 0.00 | 0.00 | 0.00 | 99 | 1012.8 |
| 20260508104540 | 35 | 350 | 0.0 | 0.0 | 0.00 | 0.00 | 0.00 | 99 | 1012.8 |
| 20260508104036 | 35 | 345 | 0.0 | 0.0 | 0.00 | 0.00 | 0.00 | 99 | 1012.8 |
| 20260508103533 | 35 | 345 | 0.0 | 0.0 | 0.00 | 0.00 | 0.00 | 99 | 1012.6 |
| 20260508103031 | 35 | 345 | 0.0 | 0.0 | 0.00 | 0.00 | 0.00 | 99 | 1012.6 |
| 20260508102528 | 35 | 345 | 0.0 | 0.0 | 0.00 | 0.00 | 0.00 | 99 | 1012.5 |
| 20260508102026 | 35 | 345 | 0.0 | 0.0 | 0.00 | 0.00 | 0.00 | 99 | 1012.5 |
| 20260508101523 | 35 | 345 | 0.0 | 0.0 | 0.00 | 0.00 | 0.00 | 99 | 1012.4 |
| 20260508101020 | 36 | 341 | 0.0 | 0.0 | 0.00 | 0.00 | 0.00 | 99 | 1012.3 |
| 20260508100518 | 36 | 351 | 0.0 | 0.0 | 0.00 | 0.00 | 0.00 | 98 | 1012.3 |
| 20260508100015 | 36 | 351 | 0.0 | 0.0 | 0.00 | 0.00 | 0.00 | 98 | 1012.5 |
| 20260508095512 | 36 | 351 | 0.0 | 0.0 | 0.00 | 0.00 | 0.00 | 98 | 1012.2 |
| 20260508095009 | 36 | 351 | 0.0 | 0.0 | 0.00 | 0.00 | 0.00 | 98 | 1012.4 |
| 20260508094506 | 36 | 351 | 0.0 | 0.0 | 0.00 | 0.00 | 0.00 | 98 | 1012.6 |
| 20260508094003 | 36 | 351 | 0.0 | 0.0 | 0.00 | 0.00 | 0.00 | 98 | 1012.5 |
| 20260508093459 | 35 | 353 | 0.0 | 0.0 | 0.00 | 0.00 | 0.00 | 98 | 1012.5 |
| 20260508092957 | 35 | 353 | 0.0 | 0.0 | 0.00 | 0.00 | 0.00 | 98 | 1012.4 |
| 20260508092455 | 35 | 353 | 0.0 | 0.0 | 0.00 | 0.00 | 0.00 | 98 | 1012.6 |
| 20260508091954 | 36 | 356 | 0.0 | 0.0 | 0.00 | 0.00 | 0.00 | 98 | 1012.5 |
| 20260508091450 | 36 | 356 | 0.0 | 0.0 | 0.00 | 0.00 | 0.00 | 98 | 1012.5 |
| 20260508090947 | 36 | 356 | 0.0 | 0.0 | 0.00 | 0.00 | 0.00 | 98 | 1012.6 |
| 20260508090446 | 37 | 356 | 0.0 | 0.0 | 0.00 | 0.00 | 0.00 | 98 | 1012.6 |
| 20260508085941 | 37 | 352 | 0.0 | 0.0 | 0.00 | 0.00 | 0.00 | 97 | 1012.4 |
| 20260508085438 | 37 | 350 | 0.0 | 0.0 | 0.00 | 0.00 | 0.00 | 98 | 1012.6 |
| 20260508084935 | 37 | 348 | 0.0 | 0.0 | 0.00 | 0.00 | 0.00 | 97 | 1012.5 |
| 20260508084431 | 38 | 347 | 0.0 | 0.0 | 0.00 | 0.00 | 0.00 | 97 | 1012.5 |
| 20260508083929 | 38 | 345 | 0.0 | 0.0 | 0.00 | 0.00 | 0.00 | 97 | 1012.4 |
| 20260508083426 | 39 | 353 | 0.0 | 0.0 | 0.00 | 0.00 | 0.00 | 97 | 1012.6 |
| 20260508082926 | 39 | 353 | 0.0 | 0.0 | 0.00 | 0.00 | 0.00 | 97 | 1012.4 |
| 20260508082418 | 38 | 350 | 0.0 | 0.0 | 0.00 | 0.00 | 0.00 | 96 | 1012.6 |
| 20260508081916 | 39 | 350 | 0.0 | 0.0 | 0.00 | 0.00 | 0.00 | 96 | 1012.9 |
| 20260508081412 | 39 | 2 | 0.0 | 0.0 | 0.00 | 0.00 | 0.00 | 96 | 1012.9 |
| 20260508080908 | 39 | 3 | 0.0 | 0.0 | 0.00 | 0.00 | 0.00 | 96 | 1012.6 |
| 20260508080407 | 39 | 350 | 0.0 | 0.0 | 0.00 | 0.00 | 0.00 | 96 | 1012.6 |
| 20260508075903 | 39 | 353 | 0.0 | 0.0 | 0.00 | 0.00 | 0.00 | 96 | 1012.9 |
| 20260508075400 | 39 | 354 | 0.0 | 0.0 | 0.00 | 0.00 | 0.00 | 95 | 1012.9 |
| 20260508074858 | 39 | 354 | 0.0 | 0.0 | 0.00 | 0.00 | 0.00 | 94 | 1012.9 |
| 20260508074354 | 40 | 351 | 0.0 | 0.0 | 0.00 | 0.00 | 0.00 | 92 | 1012.8 |
| 20260508073852 | 40 | 345 | 0.0 | 0.0 | 0.00 | 0.00 | 0.00 | 92 | 1012.9 |
| 20260508073350 | 41 | 340 | 0.0 | 0.0 | 0.00 | 0.00 | 0.00 | 91 | 1012.8 |
| 20260508072846 | 42 | 342 | 0.0 | 1.0 | 0.00 | 0.00 | 0.00 | 91 | 1012.8 |
| 20260508072342 | 42 | 331 | 0.0 | 0.0 | 0.00 | 0.00 | 0.00 | 91 | 1012.9 |
| 20260508071840 | 42 | 324 | 0.0 | 1.0 | 0.00 | 0.00 | 0.00 | 91 | 1012.9 |
| 20260508071338 | 42 | 335 | 1.0 | 1.0 | 0.00 | 0.00 | 0.00 | 91 | 1012.9 |
| 20260508070835 | 42 | 341 | 0.0 | 1.0 | 0.00 | 0.00 | 0.00 | 90 | 1013.0 |
| 20260508070334 | 43 | 352 | 0.0 | 0.0 | 0.00 | 0.00 | 0.00 | 89 | 1013.0 |
| 20260508065831 | 43 | 297 | 0.0 | 1.0 | 0.00 | 0.00 | 0.00 | 88 | 1013.3 |
| 20260508065329 | 43 | 266 | 2.0 | 2.0 | 0.00 | 0.00 | 0.00 | 88 | 1013.3 |
| 20260508064827 | 44 | 307 | 1.0 | 1.0 | 0.00 | 0.00 | 0.00 | 87 | 1013.2 |
| 20260508064324 | 44 | 303 | 1.0 | 1.0 | 0.00 | 0.00 | 0.00 | 87 | 1013.2 |
| 20260508063821 | 44 | 304 | 1.0 | 2.0 | 0.00 | 0.00 | 0.00 | 86 | 1013.4 |
| 20260508063320 | 44 | 302 | 2.0 | 3.0 | 0.00 | 0.00 | 0.00 | 87 | 1013.4 |
| 20260508062816 | 44 | 311 | 2.0 | 3.0 | 0.00 | 0.00 | 0.00 | 86 | 1013.2 |
| 20260508062314 | 44 | 308 | 2.0 | 2.0 | 0.00 | 0.00 | 0.00 | 86 | 1013.3 |
| 20260508061810 | 44 | 310 | 0.0 | 1.0 | 0.00 | 0.00 | 0.00 | 86 | 1013.2 |
| 20260508061308 | 44 | 329 | 0.0 | 0.0 | 0.00 | 0.00 | 0.00 | 86 | 1013.1 |
| 20260508060804 | 44 | 291 | 1.0 | 2.0 | 0.00 | 0.00 | 0.00 | 85 | 1013.5 |
| 20260508060303 | 45 | 335 | 0.0 | 1.0 | 0.00 | 0.00 | 0.00 | 85 | 1013.2 |
| 20260508055757 | 45 | 11 | 0.0 | 1.0 | 0.00 | 0.00 | 0.00 | 84 | 1013.3 |
| 20260508055255 | 46 | 326 | 1.0 | 1.0 | 0.00 | 0.00 | 0.00 | 83 | 1013.3 |
| 20260508054751 | 46 | 284 | 3.0 | 3.0 | 0.00 | 0.00 | 0.00 | 81 | 1013.4 |
| 20260508054249 | 46 | 284 | 3.0 | 3.0 | 0.00 | 0.00 | 0.00 | 81 | 1013.5 |
| 20260508053745 | 46 | 284 | 3.0 | 3.0 | 0.00 | 0.00 | 0.00 | 81 | 1013.2 |
| 20260508053243 | 46 | 284 | 3.0 | 3.0 | 0.00 | 0.00 | 0.00 | 81 | 1013.2 |
| 20260508052740 | 46 | 284 | 3.0 | 3.0 | 0.00 | 0.00 | 0.00 | 81 | 1013.4 |
| 20260508052237 | 46 | 331 | 2.0 | 3.0 | 0.00 | 0.00 | 0.00 | 81 | 1013.4 |
| 20260508051733 | 46 | 331 | 2.0 | 3.0 | 0.00 | 0.00 | 0.00 | 81 | 1013.4 |
| 20260508051228 | 46 | 331 | 2.0 | 4.0 | 0.00 | 0.00 | 0.00 | 81 | 1013.4 |
| 20260508050726 | 47 | 268 | 2.0 | 2.0 | 0.00 | 0.00 | 0.00 | 79 | 1013.3 |
| 20260508050223 | 47 | 268 | 2.0 | 2.0 | 0.00 | 0.00 | 0.00 | 79 | 1013.0 |
| 20260508045718 | 47 | 268 | 2.0 | 2.0 | 0.00 | 0.00 | 0.00 | 79 | 1013.2 |
| 20260508045216 | 47 | 268 | 2.0 | 2.0 | 0.00 | 0.00 | 0.00 | 79 | 1013.2 |
| 20260508044713 | 47 | 297 | 3.0 | 3.0 | 0.00 | 0.00 | 0.00 | 79 | 1013.2 |
| 20260508044210 | 47 | 305 | 2.0 | 3.0 | 0.00 | 0.00 | 0.00 | 79 | 1013.0 |
| 20260508043706 | 47 | 305 | 2.0 | 6.0 | 0.00 | 0.00 | 0.00 | 79 | 1013.0 |
| 20260508043204 | 46 | 293 | 2.0 | 2.0 | 0.00 | 0.00 | 0.00 | 81 | 1013.0 |
| 20260508042700 | 46 | 228 | 3.0 | 3.0 | 0.00 | 0.00 | 0.00 | 81 | 1012.9 |
| 20260508042157 | 45 | 351 | 0.0 | 0.0 | 0.00 | 0.00 | 0.00 | 81 | 1013.0 |
| 20260508041653 | 45 | 297 | 1.0 | 1.0 | 0.00 | 0.00 | 0.00 | 80 | 1013.2 |
| 20260508041150 | 45 | 297 | 1.0 | 1.0 | 0.00 | 0.00 | 0.00 | 80 | 1012.9 |
| 20260508040647 | 45 | 297 | 1.0 | 1.0 | 0.00 | 0.00 | 0.00 | 80 | 1012.8 |
| 20260508040144 | 45 | 297 | 1.0 | 1.0 | 0.00 | 0.00 | 0.00 | 80 | 1013.0 |
| 20260508035642 | 46 | 330 | 0.0 | 1.0 | 0.00 | 0.00 | 0.00 | 80 | 1013.0 |
| 20260508035139 | 45 | 337 | 0.0 | 1.0 | 0.00 | 0.00 | 0.00 | 79 | 1012.9 |
| 20260508034636 | 45 | 333 | 0.0 | 1.0 | 0.00 | 0.00 | 0.00 | 79 | 1012.9 |
| 20260508034133 | 45 | 345 | 2.0 | 3.0 | 0.00 | 0.00 | 0.00 | 78 | 1012.8 |
| 20260508033630 | 45 | 347 | 0.0 | 0.0 | 0.00 | 0.00 | 0.00 | 78 | 1013.1 |
| 20260508033128 | 45 | 296 | 1.0 | 2.0 | 0.00 | 0.00 | 0.00 | 77 | 1013.1 |
| 20260508032624 | 45 | 356 | 0.0 | 0.0 | 0.00 | 0.00 | 0.00 | 76 | 1012.9 |
| 20260508032122 | 45 | 243 | 2.0 | 4.0 | 0.00 | 0.00 | 0.00 | 76 | 1013.0 |
| 20260508031619 | 45 | 4 | 0.0 | 1.0 | 0.00 | 0.00 | 0.00 | 75 | 1012.9 |
| 20260508031115 | 46 | 142 | 1.0 | 1.0 | 0.00 | 0.00 | 0.00 | 75 | 1013.0 |
| 20260508030612 | 46 | 9 | 0.0 | 0.0 | 0.00 | 0.00 | 0.00 | 74 | 1013.0 |
| 20260508030110 | 47 | 350 | 0.0 | 0.0 | 0.00 | 0.00 | 0.00 | 73 | 1013.1 |
| 20260508025605 | 47 | 341 | 0.0 | 1.0 | 0.00 | 0.00 | 0.00 | 72 | 1013.2 |
| 20260508025103 | 47 | 350 | 0.0 | 0.0 | 0.00 | 0.00 | 0.00 | 72 | 1013.3 |
| 20260508024558 | 47 | 355 | 0.0 | 0.0 | 0.00 | 0.00 | 0.00 | 72 | 1013.1 |
| 20260508024056 | 47 | 5 | 0.0 | 0.0 | 0.00 | 0.00 | 0.00 | 71 | 1013.2 |
| 20260508023552 | 47 | 340 | 0.0 | 0.0 | 0.00 | 0.00 | 0.00 | 72 | 1013.4 |
| 20260508023050 | 47 | 346 | 0.0 | 0.0 | 0.00 | 0.00 | 0.00 | 72 | 1013.0 |
| 20260508022545 | 47 | 345 | 0.0 | 0.0 | 0.00 | 0.00 | 0.00 | 72 | 1012.8 |
| 20260508022043 | 47 | 359 | 0.0 | 0.0 | 0.00 | 0.00 | 0.00 | 73 | 1013.0 |
| 20260508021538 | 47 | 355 | 0.0 | 0.0 | 0.00 | 0.00 | 0.00 | 72 | 1013.0 |
| 20260508021034 | 46 | 340 | 0.0 | 0.0 | 0.00 | 0.00 | 0.00 | 71 | 1012.8 |
| 20260508020532 | 46 | 5 | 0.0 | 0.0 | 0.00 | 0.00 | 0.00 | 72 | 1013.0 |
| 20260508020030 | 46 | 357 | 0.0 | 0.0 | 0.00 | 0.00 | 0.00 | 72 | 1012.9 |
| 20260508015527 | 46 | 337 | 0.0 | 0.0 | 0.00 | 0.00 | 0.00 | 72 | 1013.1 |
| 20260508015024 | 47 | 20 | 0.0 | 0.0 | 0.00 | 0.00 | 0.00 | 67 | 1013.0 |
| 20260508014520 | 47 | 20 | 0.0 | 0.0 | 0.00 | 0.00 | 0.00 | 67 | 1012.6 |
| 20260508014016 | 47 | 20 | 0.0 | 0.0 | 0.00 | 0.00 | 0.00 | 67 | 1012.8 |
| 20260508013513 | 48 | 335 | 0.0 | 0.0 | 0.00 | 0.00 | 0.00 | 66 | 1012.5 |
| 20260508013010 | 48 | 7 | 1.0 | 1.0 | 0.00 | 0.00 | 0.00 | 65 | 1012.4 |
| 20260508012507 | 48 | 328 | 1.0 | 3.0 | 0.00 | 0.00 | 0.00 | 64 | 1012.6 |
| 20260508012004 | 49 | 57 | 1.0 | 1.0 | 0.00 | 0.00 | 0.00 | 64 | 1012.5 |
| 20260508011503 | 49 | 352 | 0.0 | 1.0 | 0.00 | 0.00 | 0.00 | 63 | 1012.4 |
| 20260508011000 | 50 | 282 | 2.0 | 2.0 | 0.00 | 0.00 | 0.00 | 62 | 1012.5 |
| 20260508010456 | 50 | 272 | 2.0 | 7.0 | 0.00 | 0.00 | 0.00 | 61 | 1012.9 |
| 20260508005954 | 50 | 286 | 3.0 | 3.0 | 0.00 | 0.00 | 0.00 | 59 | 1012.8 |
| 20260508005450 | 51 | 224 | 5.0 | 6.0 | 0.00 | 0.00 | 0.00 | 57 | 1012.8 |
| 20260508004947 | 51 | 276 | 3.0 | 4.0 | 0.00 | 0.00 | 0.00 | 54 | 1012.6 |
| 20260508004443 | 51 | 276 | 3.0 | 4.0 | 0.00 | 0.00 | 0.00 | 54 | 1012.6 |
| 20260508003940 | 51 | 290 | 7.0 | 8.0 | 0.00 | 0.00 | 0.00 | 53 | 1012.4 |
| 20260508003436 | 51 | 279 | 5.0 | 9.0 | 0.00 | 0.00 | 0.00 | 53 | 1012.5 |
| 20260508002934 | 52 | 295 | 7.0 | 9.0 | 0.00 | 0.00 | 0.00 | 52 | 1012.4 |
| 20260508002430 | 52 | 227 | 4.0 | 4.0 | 0.00 | 0.00 | 0.00 | 51 | 1012.5 |
| 20260508001926 | 51 | 299 | 4.0 | 7.0 | 0.00 | 0.00 | 0.00 | 50 | 1012.4 |
| 20260508001423 | 52 | 247 | 1.0 | 2.0 | 0.00 | 0.00 | 0.00 | 52 | 1012.3 |
| 20260508000919 | 52 | 257 | 2.0 | 3.0 | 0.00 | 0.00 | 0.00 | 49 | 1012.4 |
| 20260508000415 | 52 | 271 | 1.0 | 2.0 | 0.00 | 0.00 | 0.00 | 49 | 1012.3 |
| 20260507235912 | 52 | 279 | 2.0 | 4.0 | 0.00 | 0.00 | 0.00 | 48 | 1012.2 |
| 20260507235409 | 52 | 254 | 3.0 | 4.0 | 0.00 | 0.00 | 0.00 | 47 | 1012.2 |
| 20260507234906 | 52 | 285 | 4.0 | 4.0 | 0.00 | 0.00 | 0.00 | 47 | 1012.2 |
| 20260507234403 | 52 | 290 | 4.0 | 4.0 | 0.00 | 0.00 | 0.00 | 46 | 1012.2 |
| 20260507233900 | 52 | 303 | 5.0 | 6.0 | 0.00 | 0.00 | 0.00 | 47 | 1012.3 |
| 20260507233357 | 52 | 296 | 6.0 | 7.0 | 0.00 | 0.00 | 0.00 | 46 | 1012.3 |
| 20260507232855 | 52 | 267 | 4.0 | 9.0 | 0.00 | 0.00 | 0.00 | 46 | 1012.5 |
| 20260507232351 | 52 | 248 | 5.0 | 7.0 | 0.00 | 0.00 | 0.00 | 46 | 1012.3 |
| 20260507231849 | 52 | 277 | 4.0 | 6.0 | 0.00 | 0.00 | 0.00 | 47 | 1012.3 |
| 20260507231345 | 52 | 307 | 5.0 | 8.0 | 0.00 | 0.00 | 0.00 | 46 | 1012.4 |
| 20260507230841 | 52 | 275 | 5.0 | 7.0 | 0.00 | 0.00 | 0.00 | 45 | 1012.3 |
| 20260507230339 | 53 | 291 | 7.0 | 8.0 | 0.00 | 0.00 | 0.00 | 44 | 1012.4 |
| 20260507225838 | 53 | 291 | 6.0 | 9.0 | 0.00 | 0.00 | 0.00 | 45 | 1012.5 |